sensor_id;sensor_type;location;lat;lon;timestamp;P1;durP1;ratioP1;P2;durP2;ratioP2
66020;SDS011;52789;59.980;30.346;2024-02-26T00:02:20;10.90;;;7.50;;
66020;SDS011;52789;59.980;30.346;2024-02-26T00:04:46;13.57;;;7.77;;
66020;SDS011;52789;59.980;30.346;2024-02-26T00:07:11;10.23;;;7.67;;
66020;SDS011;52789;59.980;30.346;2024-02-26T00:09:37;9.50;;;7.00;;
66020;SDS011;52789;59.980;30.346;2024-02-26T00:12:03;11.07;;;7.33;;
66020;SDS011;52789;59.980;30.346;2024-02-26T00:14:30;12.40;;;6.80;;
66020;SDS011;52789;59.980;30.346;2024-02-26T00:16:56;11.23;;;7.13;;
66020;SDS011;52789;59.980;30.346;2024-02-26T00:19:21;12.13;;;6.97;;
66020;SDS011;52789;59.980;30.346;2024-02-26T00:21:47;13.77;;;8.20;;
66020;SDS011;52789;59.980;30.346;2024-02-26T00:24:12;10.37;;;7.07;;
66020;SDS011;52789;59.980;30.346;2024-02-26T00:26:38;8.93;;;6.80;;
66020;SDS011;52789;59.980;30.346;2024-02-26T00:29:04;13.83;;;7.57;;
66020;SDS011;52789;59.980;30.346;2024-02-26T00:31:30;10.10;;;7.03;;
66020;SDS011;52789;59.980;30.346;2024-02-26T00:33:56;10.40;;;7.37;;
66020;SDS011;52789;59.980;30.346;2024-02-26T00:36:21;11.07;;;7.60;;
66020;SDS011;52789;59.980;30.346;2024-02-26T00:38:47;9.57;;;6.50;;
66020;SDS011;52789;59.980;30.346;2024-02-26T00:41:18;10.50;;;6.63;;
66020;SDS011;52789;59.980;30.346;2024-02-26T00:43:44;9.35;;;6.40;;
66020;SDS011;52789;59.980;30.346;2024-02-26T00:46:10;9.20;;;6.17;;
66020;SDS011;52789;59.980;30.346;2024-02-26T00:48:35;7.73;;;5.70;;
66020;SDS011;52789;59.980;30.346;2024-02-26T00:51:02;8.23;;;6.20;;
66020;SDS011;52789;59.980;30.346;2024-02-26T00:53:30;8.48;;;6.65;;
66020;SDS011;52789;59.980;30.346;2024-02-26T00:55:56;8.93;;;5.80;;
66020;SDS011;52789;59.980;30.346;2024-02-26T00:58:22;10.90;;;6.47;;
66020;SDS011;52789;59.980;30.346;2024-02-26T01:00:47;8.70;;;5.63;;
66020;SDS011;52789;59.980;30.346;2024-02-26T01:03:13;8.30;;;6.00;;
66020;SDS011;52789;59.980;30.346;2024-02-26T01:05:38;7.43;;;5.33;;
66020;SDS011;52789;59.980;30.346;2024-02-26T01:08:04;9.27;;;6.53;;
66020;SDS011;52789;59.980;30.346;2024-02-26T01:10:30;6.77;;;5.13;;
66020;SDS011;52789;59.980;30.346;2024-02-26T01:12:56;8.60;;;6.10;;
66020;SDS011;52789;59.980;30.346;2024-02-26T01:15:21;6.97;;;5.17;;
66020;SDS011;52789;59.980;30.346;2024-02-26T01:17:49;9.67;;;6.23;;
66020;SDS011;52789;59.980;30.346;2024-02-26T01:20:16;7.90;;;5.73;;
66020;SDS011;52789;59.980;30.346;2024-02-26T01:22:42;7.87;;;5.33;;
66020;SDS011;52789;59.980;30.346;2024-02-26T01:25:08;8.13;;;6.60;;
66020;SDS011;52789;59.980;30.346;2024-02-26T01:27:36;8.30;;;5.90;;
66020;SDS011;52789;59.980;30.346;2024-02-26T01:30:04;9.23;;;5.80;;
66020;SDS011;52789;59.980;30.346;2024-02-26T01:32:32;8.33;;;6.27;;
66020;SDS011;52789;59.980;30.346;2024-02-26T01:34:57;9.43;;;6.27;;
66020;SDS011;52789;59.980;30.346;2024-02-26T01:37:23;6.23;;;5.37;;
66020;SDS011;52789;59.980;30.346;2024-02-26T01:39:49;7.87;;;5.67;;
66020;SDS011;52789;59.980;30.346;2024-02-26T01:42:15;6.30;;;4.83;;
66020;SDS011;52789;59.980;30.346;2024-02-26T01:44:40;6.70;;;4.87;;
66020;SDS011;52789;59.980;30.346;2024-02-26T01:47:07;7.53;;;5.20;;
66020;SDS011;52789;59.980;30.346;2024-02-26T01:49:35;8.30;;;4.83;;
66020;SDS011;52789;59.980;30.346;2024-02-26T01:52:01;5.57;;;5.03;;
66020;SDS011;52789;59.980;30.346;2024-02-26T01:54:28;6.97;;;6.07;;
66020;SDS011;52789;59.980;30.346;2024-02-26T01:56:55;8.77;;;5.43;;
66020;SDS011;52789;59.980;30.346;2024-02-26T01:59:21;10.03;;;5.87;;
66020;SDS011;52789;59.980;30.346;2024-02-26T02:01:48;9.07;;;4.93;;
66020;SDS011;52789;59.980;30.346;2024-02-26T02:04:19;7.10;;;6.00;;
66020;SDS011;52789;59.980;30.346;2024-02-26T02:06:46;7.50;;;4.70;;
66020;SDS011;52789;59.980;30.346;2024-02-26T02:09:12;9.23;;;5.63;;
66020;SDS011;52789;59.980;30.346;2024-02-26T02:11:38;8.67;;;5.87;;
66020;SDS011;52789;59.980;30.346;2024-02-26T02:14:04;10.90;;;7.17;;
66020;SDS011;52789;59.980;30.346;2024-02-26T02:16:30;13.50;;;7.43;;
66020;SDS011;52789;59.980;30.346;2024-02-26T02:18:56;10.40;;;7.07;;
66020;SDS011;52789;59.980;30.346;2024-02-26T02:21:21;13.10;;;8.13;;
66020;SDS011;52789;59.980;30.346;2024-02-26T02:23:47;13.30;;;8.30;;
66020;SDS011;52789;59.980;30.346;2024-02-26T02:26:14;14.57;;;9.60;;
66020;SDS011;52789;59.980;30.346;2024-02-26T02:28:43;12.93;;;9.23;;
66020;SDS011;52789;59.980;30.346;2024-02-26T02:31:09;15.32;;;9.82;;
66020;SDS011;52789;59.980;30.346;2024-02-26T02:33:35;20.83;;;12.20;;
66020;SDS011;52789;59.980;30.346;2024-02-26T02:36:01;20.80;;;12.87;;
66020;SDS011;52789;59.980;30.346;2024-02-26T02:38:27;18.93;;;12.53;;
66020;SDS011;52789;59.980;30.346;2024-02-26T02:40:55;23.60;;;14.13;;
66020;SDS011;52789;59.980;30.346;2024-02-26T02:43:21;29.07;;;15.27;;
66020;SDS011;52789;59.980;30.346;2024-02-26T02:45:46;24.30;;;14.30;;
66020;SDS011;52789;59.980;30.346;2024-02-26T02:48:12;23.77;;;14.07;;
66020;SDS011;52789;59.980;30.346;2024-02-26T02:50:38;22.03;;;14.07;;
66020;SDS011;52789;59.980;30.346;2024-02-26T02:53:04;26.93;;;15.10;;
66020;SDS011;52789;59.980;30.346;2024-02-26T02:55:30;23.57;;;14.73;;
66020;SDS011;52789;59.980;30.346;2024-02-26T02:57:56;19.23;;;12.97;;
66020;SDS011;52789;59.980;30.346;2024-02-26T03:00:21;24.10;;;13.77;;
66020;SDS011;52789;59.980;30.346;2024-02-26T03:02:48;24.07;;;13.97;;
66020;SDS011;52789;59.980;30.346;2024-02-26T03:05:14;19.67;;;12.50;;
66020;SDS011;52789;59.980;30.346;2024-02-26T03:07:40;24.57;;;14.00;;
66020;SDS011;52789;59.980;30.346;2024-02-26T03:10:06;22.10;;;12.67;;
66020;SDS011;52789;59.980;30.346;2024-02-26T03:12:32;22.93;;;14.40;;
66020;SDS011;52789;59.980;30.346;2024-02-26T03:14:59;20.77;;;13.03;;
66020;SDS011;52789;59.980;30.346;2024-02-26T03:17:30;23.20;;;13.50;;
66020;SDS011;52789;59.980;30.346;2024-02-26T03:19:56;20.93;;;12.57;;
66020;SDS011;52789;59.980;30.346;2024-02-26T03:22:21;19.73;;;12.90;;
66020;SDS011;52789;59.980;30.346;2024-02-26T03:24:47;20.53;;;12.47;;
66020;SDS011;52789;59.980;30.346;2024-02-26T03:27:13;22.03;;;12.83;;
66020;SDS011;52789;59.980;30.346;2024-02-26T03:29:40;22.30;;;12.80;;
66020;SDS011;52789;59.980;30.346;2024-02-26T03:32:05;24.97;;;13.90;;
66020;SDS011;52789;59.980;30.346;2024-02-26T03:34:32;24.13;;;13.13;;
66020;SDS011;52789;59.980;30.346;2024-02-26T03:37:00;22.63;;;13.90;;
66020;SDS011;52789;59.980;30.346;2024-02-26T03:39:25;26.13;;;12.53;;
66020;SDS011;52789;59.980;30.346;2024-02-26T03:41:51;25.80;;;13.93;;
66020;SDS011;52789;59.980;30.346;2024-02-26T03:44:17;22.17;;;13.37;;
66020;SDS011;52789;59.980;30.346;2024-02-26T03:46:42;21.57;;;13.73;;
66020;SDS011;52789;59.980;30.346;2024-02-26T03:49:08;22.03;;;14.87;;
66020;SDS011;52789;59.980;30.346;2024-02-26T03:51:34;21.20;;;13.43;;
66020;SDS011;52789;59.980;30.346;2024-02-26T03:54:00;22.27;;;13.60;;
66020;SDS011;52789;59.980;30.346;2024-02-26T03:56:26;20.83;;;12.37;;
66020;SDS011;52789;59.980;30.346;2024-02-26T03:58:52;17.23;;;11.23;;
66020;SDS011;52789;59.980;30.346;2024-02-26T04:01:18;21.73;;;14.23;;
66020;SDS011;52789;59.980;30.346;2024-02-26T04:03:44;19.80;;;12.43;;
66020;SDS011;52789;59.980;30.346;2024-02-26T04:06:09;22.27;;;14.20;;
66020;SDS011;52789;59.980;30.346;2024-02-26T04:08:36;20.47;;;13.10;;
66020;SDS011;52789;59.980;30.346;2024-02-26T04:11:03;20.60;;;13.23;;
66020;SDS011;52789;59.980;30.346;2024-02-26T04:13:33;20.80;;;12.47;;
66020;SDS011;52789;59.980;30.346;2024-02-26T04:15:59;19.00;;;13.53;;
66020;SDS011;52789;59.980;30.346;2024-02-26T04:18:26;21.90;;;13.23;;
66020;SDS011;52789;59.980;30.346;2024-02-26T04:20:52;19.47;;;12.60;;
66020;SDS011;52789;59.980;30.346;2024-02-26T04:23:18;23.40;;;13.07;;
66020;SDS011;52789;59.980;30.346;2024-02-26T04:25:50;21.40;;;14.43;;
66020;SDS011;52789;59.980;30.346;2024-02-26T04:28:19;22.37;;;13.90;;
66020;SDS011;52789;59.980;30.346;2024-02-26T04:30:46;21.57;;;13.87;;
66020;SDS011;52789;59.980;30.346;2024-02-26T04:33:13;23.10;;;13.73;;
66020;SDS011;52789;59.980;30.346;2024-02-26T04:35:39;17.87;;;11.93;;
66020;SDS011;52789;59.980;30.346;2024-02-26T04:38:04;22.17;;;12.60;;
66020;SDS011;52789;59.980;30.346;2024-02-26T04:40:30;18.20;;;12.23;;
66020;SDS011;52789;59.980;30.346;2024-02-26T04:42:55;18.80;;;11.67;;
66020;SDS011;52789;59.980;30.346;2024-02-26T04:45:22;23.53;;;13.87;;
66020;SDS011;52789;59.980;30.346;2024-02-26T04:47:48;19.47;;;12.77;;
66020;SDS011;52789;59.980;30.346;2024-02-26T04:50:14;19.23;;;13.67;;
66020;SDS011;52789;59.980;30.346;2024-02-26T04:52:39;21.63;;;13.33;;
66020;SDS011;52789;59.980;30.346;2024-02-26T04:55:06;21.17;;;14.77;;
66020;SDS011;52789;59.980;30.346;2024-02-26T04:57:31;21.27;;;13.67;;
66020;SDS011;52789;59.980;30.346;2024-02-26T04:59:57;23.33;;;14.23;;
66020;SDS011;52789;59.980;30.346;2024-02-26T05:02:23;19.13;;;12.60;;
66020;SDS011;52789;59.980;30.346;2024-02-26T05:04:49;19.80;;;12.70;;
66020;SDS011;52789;59.980;30.346;2024-02-26T05:07:15;21.23;;;14.13;;
66020;SDS011;52789;59.980;30.346;2024-02-26T05:09:42;21.97;;;12.47;;
66020;SDS011;52789;59.980;30.346;2024-02-26T05:12:09;21.60;;;13.50;;
66020;SDS011;52789;59.980;30.346;2024-02-26T05:14:35;24.73;;;13.57;;
66020;SDS011;52789;59.980;30.346;2024-02-26T05:17:00;18.73;;;12.90;;
66020;SDS011;52789;59.980;30.346;2024-02-26T05:19:26;24.43;;;13.53;;
66020;SDS011;52789;59.980;30.346;2024-02-26T05:21:52;18.93;;;12.17;;
66020;SDS011;52789;59.980;30.346;2024-02-26T05:24:17;24.23;;;13.40;;
66020;SDS011;52789;59.980;30.346;2024-02-26T05:26:44;23.00;;;14.13;;
66020;SDS011;52789;59.980;30.346;2024-02-26T05:29:10;21.70;;;13.43;;
66020;SDS011;52789;59.980;30.346;2024-02-26T05:31:36;18.70;;;12.07;;
66020;SDS011;52789;59.980;30.346;2024-02-26T05:34:02;25.53;;;12.17;;
66020;SDS011;52789;59.980;30.346;2024-02-26T05:36:27;24.87;;;12.70;;
66020;SDS011;52789;59.980;30.346;2024-02-26T05:38:58;20.43;;;11.70;;
66020;SDS011;52789;59.980;30.346;2024-02-26T05:41:25;25.90;;;14.60;;
66020;SDS011;52789;59.980;30.346;2024-02-26T05:43:55;23.87;;;13.23;;
66020;SDS011;52789;59.980;30.346;2024-02-26T05:46:21;23.53;;;13.13;;
66020;SDS011;52789;59.980;30.346;2024-02-26T05:48:47;24.27;;;13.07;;
66020;SDS011;52789;59.980;30.346;2024-02-26T05:51:14;24.60;;;13.93;;
66020;SDS011;52789;59.980;30.346;2024-02-26T05:53:40;25.00;;;14.77;;
66020;SDS011;52789;59.980;30.346;2024-02-26T05:56:06;26.63;;;14.87;;
66020;SDS011;52789;59.980;30.346;2024-02-26T05:58:32;24.47;;;15.13;;
66020;SDS011;52789;59.980;30.346;2024-02-26T06:00:57;24.80;;;14.17;;
66020;SDS011;52789;59.980;30.346;2024-02-26T06:03:23;28.57;;;14.63;;
66020;SDS011;52789;59.980;30.346;2024-02-26T06:05:49;25.83;;;14.33;;
66020;SDS011;52789;59.980;30.346;2024-02-26T06:08:14;33.00;;;15.40;;
66020;SDS011;52789;59.980;30.346;2024-02-26T06:10:40;23.67;;;14.20;;
66020;SDS011;52789;59.980;30.346;2024-02-26T06:13:05;32.73;;;15.60;;
66020;SDS011;52789;59.980;30.346;2024-02-26T06:15:31;28.57;;;13.90;;
66020;SDS011;52789;59.980;30.346;2024-02-26T06:17:57;30.33;;;15.33;;
66020;SDS011;52789;59.980;30.346;2024-02-26T06:20:22;27.50;;;15.43;;
66020;SDS011;52789;59.980;30.346;2024-02-26T06:22:48;33.13;;;17.00;;
66020;SDS011;52789;59.980;30.346;2024-02-26T06:25:13;35.37;;;16.50;;
66020;SDS011;52789;59.980;30.346;2024-02-26T06:27:42;27.53;;;14.73;;
66020;SDS011;52789;59.980;30.346;2024-02-26T06:30:07;32.17;;;17.03;;
66020;SDS011;52789;59.980;30.346;2024-02-26T06:32:36;34.08;;;17.15;;
66020;SDS011;52789;59.980;30.346;2024-02-26T06:35:02;28.33;;;16.57;;
66020;SDS011;52789;59.980;30.346;2024-02-26T06:37:32;34.30;;;17.07;;
66020;SDS011;52789;59.980;30.346;2024-02-26T06:39:59;24.47;;;15.40;;
66020;SDS011;52789;59.980;30.346;2024-02-26T06:42:32;35.67;;;17.93;;
66020;SDS011;52789;59.980;30.346;2024-02-26T06:44:57;37.70;;;18.57;;
66020;SDS011;52789;59.980;30.346;2024-02-26T06:47:23;28.77;;;16.37;;
66020;SDS011;52789;59.980;30.346;2024-02-26T06:49:49;27.17;;;15.77;;
66020;SDS011;52789;59.980;30.346;2024-02-26T06:52:14;31.03;;;17.10;;
66020;SDS011;52789;59.980;30.346;2024-02-26T06:54:40;32.33;;;16.53;;
66020;SDS011;52789;59.980;30.346;2024-02-26T06:57:05;32.97;;;17.20;;
66020;SDS011;52789;59.980;30.346;2024-02-26T06:59:31;34.33;;;17.03;;
66020;SDS011;52789;59.980;30.346;2024-02-26T07:01:56;31.43;;;18.23;;
66020;SDS011;52789;59.980;30.346;2024-02-26T07:04:22;27.07;;;15.93;;
66020;SDS011;52789;59.980;30.346;2024-02-26T07:06:47;26.50;;;15.10;;
66020;SDS011;52789;59.980;30.346;2024-02-26T07:09:13;32.70;;;15.37;;
66020;SDS011;52789;59.980;30.346;2024-02-26T07:11:39;30.10;;;16.33;;
66020;SDS011;52789;59.980;30.346;2024-02-26T07:14:08;31.87;;;15.90;;
66020;SDS011;52789;59.980;30.346;2024-02-26T07:16:34;26.77;;;15.63;;
66020;SDS011;52789;59.980;30.346;2024-02-26T07:18:59;27.23;;;16.77;;
66020;SDS011;52789;59.980;30.346;2024-02-26T07:21:25;42.43;;;21.60;;
66020;SDS011;52789;59.980;30.346;2024-02-26T07:23:50;22.60;;;14.77;;
66020;SDS011;52789;59.980;30.346;2024-02-26T07:26:16;25.37;;;15.73;;
66020;SDS011;52789;59.980;30.346;2024-02-26T07:28:47;24.67;;;16.52;;
66020;SDS011;52789;59.980;30.346;2024-02-26T07:31:12;28.88;;;15.00;;
66020;SDS011;52789;59.980;30.346;2024-02-26T07:33:38;23.73;;;15.17;;
66020;SDS011;52789;59.980;30.346;2024-02-26T07:36:03;25.67;;;15.33;;
66020;SDS011;52789;59.980;30.346;2024-02-26T07:38:29;28.03;;;15.43;;
66020;SDS011;52789;59.980;30.346;2024-02-26T07:40:54;34.23;;;16.53;;
66020;SDS011;52789;59.980;30.346;2024-02-26T07:43:22;27.53;;;15.20;;
66020;SDS011;52789;59.980;30.346;2024-02-26T07:45:48;39.10;;;18.63;;
66020;SDS011;52789;59.980;30.346;2024-02-26T07:48:13;29.37;;;16.43;;
66020;SDS011;52789;59.980;30.346;2024-02-26T07:50:39;29.67;;;16.17;;
66020;SDS011;52789;59.980;30.346;2024-02-26T07:53:05;30.20;;;16.47;;
66020;SDS011;52789;59.980;30.346;2024-02-26T07:55:31;28.97;;;15.07;;
66020;SDS011;52789;59.980;30.346;2024-02-26T07:57:57;26.37;;;15.43;;
66020;SDS011;52789;59.980;30.346;2024-02-26T08:00:22;27.30;;;15.23;;
66020;SDS011;52789;59.980;30.346;2024-02-26T08:02:48;26.07;;;15.27;;
66020;SDS011;52789;59.980;30.346;2024-02-26T08:05:13;24.57;;;15.30;;
66020;SDS011;52789;59.980;30.346;2024-02-26T08:07:39;27.07;;;15.97;;
66020;SDS011;52789;59.980;30.346;2024-02-26T08:10:05;21.40;;;13.77;;
66020;SDS011;52789;59.980;30.346;2024-02-26T08:12:32;25.43;;;14.87;;
66020;SDS011;52789;59.980;30.346;2024-02-26T08:14:57;25.27;;;14.60;;
66020;SDS011;52789;59.980;30.346;2024-02-26T08:17:23;21.30;;;13.97;;
66020;SDS011;52789;59.980;30.346;2024-02-26T08:19:49;20.07;;;14.43;;
66020;SDS011;52789;59.980;30.346;2024-02-26T08:22:14;26.03;;;14.90;;
66020;SDS011;52789;59.980;30.346;2024-02-26T08:24:43;19.75;;;13.25;;
66020;SDS011;52789;59.980;30.346;2024-02-26T08:27:09;21.30;;;12.53;;
66020;SDS011;52789;59.980;30.346;2024-02-26T08:29:35;20.17;;;12.93;;
66020;SDS011;52789;59.980;30.346;2024-02-26T08:32:01;17.43;;;12.20;;
66020;SDS011;52789;59.980;30.346;2024-02-26T08:34:39;24.80;;;13.70;;
66020;SDS011;52789;59.980;30.346;2024-02-26T08:37:05;20.33;;;13.03;;
66020;SDS011;52789;59.980;30.346;2024-02-26T08:39:31;14.53;;;11.27;;
66020;SDS011;52789;59.980;30.346;2024-02-26T08:41:56;20.20;;;12.63;;
66020;SDS011;52789;59.980;30.346;2024-02-26T08:44:22;19.67;;;13.67;;
66020;SDS011;52789;59.980;30.346;2024-02-26T08:46:48;17.10;;;12.70;;
66020;SDS011;52789;59.980;30.346;2024-02-26T08:49:13;19.63;;;13.40;;
66020;SDS011;52789;59.980;30.346;2024-02-26T08:51:42;16.73;;;12.33;;
66020;SDS011;52789;59.980;30.346;2024-02-26T08:54:08;18.43;;;12.73;;
66020;SDS011;52789;59.980;30.346;2024-02-26T08:56:34;20.30;;;12.80;;
66020;SDS011;52789;59.980;30.346;2024-02-26T08:59:00;16.07;;;11.07;;
66020;SDS011;52789;59.980;30.346;2024-02-26T09:01:31;15.10;;;11.47;;
66020;SDS011;52789;59.980;30.346;2024-02-26T09:03:58;15.40;;;9.57;;
66020;SDS011;52789;59.980;30.346;2024-02-26T09:06:24;16.40;;;10.33;;
66020;SDS011;52789;59.980;30.346;2024-02-26T09:08:49;16.20;;;8.60;;
66020;SDS011;52789;59.980;30.346;2024-02-26T09:11:15;13.20;;;8.27;;
66020;SDS011;52789;59.980;30.346;2024-02-26T09:13:41;10.17;;;7.30;;
66020;SDS011;52789;59.980;30.346;2024-02-26T09:16:07;10.30;;;6.77;;
66020;SDS011;52789;59.980;30.346;2024-02-26T09:18:33;9.53;;;7.47;;
66020;SDS011;52789;59.980;30.346;2024-02-26T09:20:58;10.33;;;6.57;;
66020;SDS011;52789;59.980;30.346;2024-02-26T09:23:24;11.00;;;6.50;;
66020;SDS011;52789;59.980;30.346;2024-02-26T09:25:50;10.60;;;8.10;;
66020;SDS011;52789;59.980;30.346;2024-02-26T09:28:17;7.93;;;6.53;;
66020;SDS011;52789;59.980;30.346;2024-02-26T09:30:44;8.53;;;6.27;;
66020;SDS011;52789;59.980;30.346;2024-02-26T09:33:09;8.53;;;6.13;;
66020;SDS011;52789;59.980;30.346;2024-02-26T09:35:35;10.60;;;6.77;;
66020;SDS011;52789;59.980;30.346;2024-02-26T09:38:01;9.37;;;6.93;;
66020;SDS011;52789;59.980;30.346;2024-02-26T09:40:27;6.43;;;5.20;;
66020;SDS011;52789;59.980;30.346;2024-02-26T09:42:53;9.20;;;6.60;;
66020;SDS011;52789;59.980;30.346;2024-02-26T09:45:25;8.87;;;6.30;;
66020;SDS011;52789;59.980;30.346;2024-02-26T09:47:52;8.73;;;6.68;;
66020;SDS011;52789;59.980;30.346;2024-02-26T09:50:30;7.53;;;5.67;;
66020;SDS011;52789;59.980;30.346;2024-02-26T09:52:55;8.10;;;5.50;;
66020;SDS011;52789;59.980;30.346;2024-02-26T09:55:27;7.03;;;5.87;;
66020;SDS011;52789;59.980;30.346;2024-02-26T09:57:56;6.95;;;6.22;;
66020;SDS011;52789;59.980;30.346;2024-02-26T10:00:23;9.90;;;6.10;;
66020;SDS011;52789;59.980;30.346;2024-02-26T10:02:53;5.93;;;5.27;;
66020;SDS011;52789;59.980;30.346;2024-02-26T10:05:40;7.53;;;6.00;;
66020;SDS011;52789;59.980;30.346;2024-02-26T10:08:08;7.53;;;5.60;;
66020;SDS011;52789;59.980;30.346;2024-02-26T10:10:36;7.85;;;5.80;;
66020;SDS011;52789;59.980;30.346;2024-02-26T10:13:03;7.97;;;6.07;;
66020;SDS011;52789;59.980;30.346;2024-02-26T10:15:43;9.50;;;5.33;;
66020;SDS011;52789;59.980;30.346;2024-02-26T10:21:12;10.23;;;5.27;;
66020;SDS011;52789;59.980;30.346;2024-02-26T10:23:37;5.30;;;4.33;;
66020;SDS011;52789;59.980;30.346;2024-02-26T10:26:05;4.50;;;4.05;;
66020;SDS011;52789;59.980;30.346;2024-02-26T10:28:39;4.87;;;4.07;;
66020;SDS011;52789;59.980;30.346;2024-02-26T10:31:07;8.60;;;4.40;;
66020;SDS011;52789;59.980;30.346;2024-02-26T10:33:33;6.23;;;5.07;;
66020;SDS011;52789;59.980;30.346;2024-02-26T10:36:05;7.40;;;5.03;;
66020;SDS011;52789;59.980;30.346;2024-02-26T10:38:33;9.30;;;4.27;;
66020;SDS011;52789;59.980;30.346;2024-02-26T10:41:06;7.53;;;5.90;;
66020;SDS011;52789;59.980;30.346;2024-02-26T10:43:33;8.30;;;5.03;;
66020;SDS011;52789;59.980;30.346;2024-02-26T10:45:59;8.30;;;5.10;;
66020;SDS011;52789;59.980;30.346;2024-02-26T10:48:25;25.23;;;13.57;;
66020;SDS011;52789;59.980;30.346;2024-02-26T10:50:50;16.00;;;9.77;;
66020;SDS011;52789;59.980;30.346;2024-02-26T10:53:19;11.20;;;5.93;;
66020;SDS011;52789;59.980;30.346;2024-02-26T10:55:48;10.00;;;6.32;;
66020;SDS011;52789;59.980;30.346;2024-02-26T10:58:17;10.77;;;7.57;;
66020;SDS011;52789;59.980;30.346;2024-02-26T11:00:44;12.43;;;6.23;;
66020;SDS011;52789;59.980;30.346;2024-02-26T11:03:13;7.15;;;5.75;;
66020;SDS011;52789;59.980;30.346;2024-02-26T11:05:42;9.03;;;5.83;;
66020;SDS011;52789;59.980;30.346;2024-02-26T11:08:09;6.47;;;5.73;;
66020;SDS011;52789;59.980;30.346;2024-02-26T11:10:36;10.30;;;4.97;;
66020;SDS011;52789;59.980;30.346;2024-02-26T11:13:06;7.50;;;5.00;;
66020;SDS011;52789;59.980;30.346;2024-02-26T11:15:37;5.30;;;4.80;;
66020;SDS011;52789;59.980;30.346;2024-02-26T11:18:05;7.00;;;5.10;;
66020;SDS011;52789;59.980;30.346;2024-02-26T11:20:31;5.27;;;4.63;;
66020;SDS011;52789;59.980;30.346;2024-02-26T11:22:58;5.63;;;4.70;;
66020;SDS011;52789;59.980;30.346;2024-02-26T11:25:28;8.53;;;5.93;;
66020;SDS011;52789;59.980;30.346;2024-02-26T11:27:54;5.97;;;4.83;;
66020;SDS011;52789;59.980;30.346;2024-02-26T11:30:24;6.20;;;4.83;;
66020;SDS011;52789;59.980;30.346;2024-02-26T11:32:51;8.07;;;5.10;;
66020;SDS011;52789;59.980;30.346;2024-02-26T11:35:20;6.00;;;5.40;;
66020;SDS011;52789;59.980;30.346;2024-02-26T11:37:56;6.22;;;5.05;;
66020;SDS011;52789;59.980;30.346;2024-02-26T11:40:23;8.10;;;5.30;;
66020;SDS011;52789;59.980;30.346;2024-02-26T11:42:51;5.70;;;5.07;;
66020;SDS011;52789;59.980;30.346;2024-02-26T11:52:19;8.77;;;5.30;;
66020;SDS011;52789;59.980;30.346;2024-02-26T11:57:21;6.47;;;4.60;;
66020;SDS011;52789;59.980;30.346;2024-02-26T11:59:50;7.53;;;5.23;;
66020;SDS011;52789;59.980;30.346;2024-02-26T12:05:10;6.57;;;4.93;;
66020;SDS011;52789;59.980;30.346;2024-02-26T12:07:39;6.20;;;5.50;;
66020;SDS011;52789;59.980;30.346;2024-02-26T12:13:07;5.97;;;5.37;;
66020;SDS011;52789;59.980;30.346;2024-02-26T12:15:33;8.43;;;6.70;;
66020;SDS011;52789;59.980;30.346;2024-02-26T12:20:31;7.93;;;6.00;;
66020;SDS011;52789;59.980;30.346;2024-02-26T12:25:27;6.37;;;5.17;;
66020;SDS011;52789;59.980;30.346;2024-02-26T12:27:56;7.10;;;5.73;;
66020;SDS011;52789;59.980;30.346;2024-02-26T12:30:23;7.70;;;6.27;;
66020;SDS011;52789;59.980;30.346;2024-02-26T12:32:54;8.20;;;7.10;;
66020;SDS011;52789;59.980;30.346;2024-02-26T12:35:26;9.70;;;6.90;;
66020;SDS011;52789;59.980;30.346;2024-02-26T12:37:53;9.70;;;6.83;;
66020;SDS011;52789;59.980;30.346;2024-02-26T12:40:19;10.03;;;6.63;;
66020;SDS011;52789;59.980;30.346;2024-02-26T12:42:49;11.63;;;7.03;;
66020;SDS011;52789;59.980;30.346;2024-02-26T12:45:15;9.87;;;7.57;;
66020;SDS011;52789;59.980;30.346;2024-02-26T12:47:42;8.47;;;7.10;;
66020;SDS011;52789;59.980;30.346;2024-02-26T12:50:09;9.60;;;7.47;;
66020;SDS011;52789;59.980;30.346;2024-02-26T12:52:36;10.40;;;7.37;;
66020;SDS011;52789;59.980;30.346;2024-02-26T12:57:34;8.27;;;7.33;;
66020;SDS011;52789;59.980;30.346;2024-02-26T13:00:02;12.97;;;7.73;;
66020;SDS011;52789;59.980;30.346;2024-02-26T13:02:31;8.93;;;7.55;;
66020;SDS011;52789;59.980;30.346;2024-02-26T13:04:57;9.83;;;7.63;;
66020;SDS011;52789;59.980;30.346;2024-02-26T13:07:34;11.93;;;7.83;;
66020;SDS011;52789;59.980;30.346;2024-02-26T13:10:06;8.93;;;6.47;;
66020;SDS011;52789;59.980;30.346;2024-02-26T13:12:32;8.70;;;5.73;;
66020;SDS011;52789;59.980;30.346;2024-02-26T13:15:01;12.37;;;8.20;;
66020;SDS011;52789;59.980;30.346;2024-02-26T13:17:33;17.47;;;11.73;;
66020;SDS011;52789;59.980;30.346;2024-02-26T13:22:24;10.67;;;6.93;;
66020;SDS011;52789;59.980;30.346;2024-02-26T13:24:54;18.93;;;9.13;;
66020;SDS011;52789;59.980;30.346;2024-02-26T13:27:24;15.27;;;8.00;;
66020;SDS011;52789;59.980;30.346;2024-02-26T13:30:03;32.63;;;15.67;;
66020;SDS011;52789;59.980;30.346;2024-02-26T13:32:36;17.20;;;10.13;;
66020;SDS011;52789;59.980;30.346;2024-02-26T13:38:15;12.00;;;8.30;;
66020;SDS011;52789;59.980;30.346;2024-02-26T13:43:06;9.07;;;7.17;;
66020;SDS011;52789;59.980;30.346;2024-02-26T13:45:36;8.87;;;7.07;;
66020;SDS011;52789;59.980;30.346;2024-02-26T13:48:03;9.67;;;7.10;;
66020;SDS011;52789;59.980;30.346;2024-02-26T13:50:30;10.63;;;7.37;;
66020;SDS011;52789;59.980;30.346;2024-02-26T13:52:56;9.70;;;7.33;;
66020;SDS011;52789;59.980;30.346;2024-02-26T13:55:26;9.20;;;6.77;;
66020;SDS011;52789;59.980;30.346;2024-02-26T13:57:56;9.80;;;6.90;;
66020;SDS011;52789;59.980;30.346;2024-02-26T14:00:23;8.97;;;6.63;;
66020;SDS011;52789;59.980;30.346;2024-02-26T14:02:50;6.50;;;5.63;;
66020;SDS011;52789;59.980;30.346;2024-02-26T14:05:25;8.70;;;6.47;;
66020;SDS011;52789;59.980;30.346;2024-02-26T14:07:52;7.83;;;6.80;;
66020;SDS011;52789;59.980;30.346;2024-02-26T14:10:21;7.60;;;6.73;;
66020;SDS011;52789;59.980;30.346;2024-02-26T14:12:47;12.02;;;7.38;;
66020;SDS011;52789;59.980;30.346;2024-02-26T14:15:12;8.67;;;5.70;;
66020;SDS011;52789;59.980;30.346;2024-02-26T14:17:38;5.93;;;5.27;;
66020;SDS011;52789;59.980;30.346;2024-02-26T14:20:04;6.87;;;6.00;;
66020;SDS011;52789;59.980;30.346;2024-02-26T14:22:30;10.33;;;6.63;;
66020;SDS011;52789;59.980;30.346;2024-02-26T14:24:56;8.47;;;6.30;;
66020;SDS011;52789;59.980;30.346;2024-02-26T14:30:51;9.88;;;7.80;;
66020;SDS011;52789;59.980;30.346;2024-02-26T14:33:18;10.00;;;7.37;;
66020;SDS011;52789;59.980;30.346;2024-02-26T14:35:43;8.07;;;6.33;;
66020;SDS011;52789;59.980;30.346;2024-02-26T14:38:09;11.33;;;8.03;;
66020;SDS011;52789;59.980;30.346;2024-02-26T14:40:35;14.60;;;7.77;;
66020;SDS011;52789;59.980;30.346;2024-02-26T14:43:01;12.67;;;8.37;;
66020;SDS011;52789;59.980;30.346;2024-02-26T14:45:27;8.90;;;6.17;;
66020;SDS011;52789;59.980;30.346;2024-02-26T14:47:52;8.23;;;6.70;;
66020;SDS011;52789;59.980;30.346;2024-02-26T14:50:18;9.43;;;7.90;;
66020;SDS011;52789;59.980;30.346;2024-02-26T14:52:44;9.30;;;6.73;;
66020;SDS011;52789;59.980;30.346;2024-02-26T14:55:09;7.83;;;5.97;;
66020;SDS011;52789;59.980;30.346;2024-02-26T14:57:35;10.00;;;7.20;;